CheckWX is a tool to help pilots better visualize weather data.  It is not intended as a substitute for an official pre-flight weather briefing.

12:49:42 UTC

DNMN METAR
Minna Airport
Minna, Nigeria
Current

2 hours ago

DNMN 221100Z 26010KT 8000 NSC 33/21 Q1008
Observed
Feb-22 @ 11:00 UTC
Wind
  • 260° at 10 KTS
Visibility
7,998 meters
Flight Rules
MVFR
Cloud Levels
  • Clear skies
Temperature
33°C / 91°F
Dewpoint
21°C / 70°F
Humidity
49%
Altimeter
29.76" Hg
Pressure
1007.92 hPa
Previous

5 hours ago

DNMN 220800Z 08005KT 5000 HZ NSC 28/15 Q1010
Observed
Feb-22 @ 08:00 UTC
Wind
  • 080° at 5 KTS
Visibility
5,005 meters
Flight Rules
MVFR
Conditions
Haze
Cloud Levels
  • Clear skies
Temperature
28°C / 82°F
Dewpoint
15°C / 59°F
Humidity
45%
Altimeter
29.82" Hg
Pressure
1009.92 hPa
Previous

6 hours ago

DNMN 220700Z 08005KT 5000 HZ NSC 25/10 Q1009
Observed
Feb-22 @ 07:00 UTC
Wind
  • 080° at 5 KTS
Visibility
5,005 meters
Flight Rules
MVFR
Conditions
Haze
Cloud Levels
  • Clear skies
Temperature
25°C / 77°F
Dewpoint
10°C / 50°F
Humidity
39%
Altimeter
29.79" Hg
Pressure
1008.92 hPa